createdAt,value
2023-05-13T00:04:03.593Z,51.90
2023-05-13T00:14:06.342Z,52.40
2023-05-13T00:24:07.821Z,52.22
2023-05-13T00:34:09.237Z,52.13
2023-05-13T00:44:11.453Z,52.23
2023-05-13T00:54:14.087Z,52.40
2023-05-13T01:04:37.325Z,52.10
2023-05-13T01:14:45.541Z,52.78
2023-05-13T01:24:46.996Z,52.51
2023-05-13T01:34:48.385Z,52.84
2023-05-13T01:44:51.288Z,53.11
2023-05-13T01:54:52.680Z,52.88
2023-05-13T02:04:54.070Z,52.92
2023-05-13T02:14:55.537Z,52.80
2023-05-13T02:24:57.251Z,52.69
2023-05-13T02:34:58.638Z,53.06
2023-05-13T02:45:00.048Z,51.97
2023-05-13T02:55:02.148Z,51.27
2023-05-13T03:05:03.882Z,51.17
2023-05-13T03:15:05.541Z,50.95
2023-05-13T03:25:07.270Z,51.19
2023-05-13T03:35:08.744Z,51.63
2023-05-13T03:45:10.461Z,52.09
2023-05-13T03:55:11.851Z,51.63
2023-05-13T04:05:14.108Z,51.29
2023-05-13T04:15:15.637Z,51.42
2023-05-13T04:25:17.011Z,51.47
2023-05-13T04:35:18.389Z,50.78
2023-05-13T04:45:20.192Z,50.21
2023-05-13T04:55:22.294Z,49.95
2023-05-13T05:05:24.182Z,50.84
2023-05-13T05:15:25.615Z,50.60
2023-05-13T05:25:27.010Z,49.20
2023-05-13T05:35:28.399Z,49.41
2023-05-13T05:45:29.806Z,48.68
2023-05-13T05:55:34.296Z,47.53
2023-05-13T06:05:36.135Z,45.00
2023-05-13T06:15:40.707Z,44.69
2023-05-13T06:25:42.168Z,43.83
2023-05-13T06:35:48.084Z,43.55
2023-05-13T06:45:49.467Z,42.88
2023-05-13T06:55:51.106Z,42.20
2023-05-13T07:05:53.628Z,42.03
2023-05-13T07:15:55.018Z,41.89
2023-05-13T07:25:56.411Z,41.41
2023-05-13T07:35:57.856Z,41.20
2023-05-13T07:45:59.250Z,41.40
2023-05-13T07:56:00.645Z,39.74
2023-05-13T08:06:02.018Z,39.24
2023-05-13T08:16:03.540Z,37.61
2023-05-13T08:26:04.970Z,37.67
2023-05-13T08:36:06.807Z,35.98
2023-05-13T08:46:09.649Z,34.63
2023-05-13T08:56:11.752Z,31.13
2023-05-13T09:06:13.144Z,25.93
2023-05-13T09:16:15.107Z,23.27
2023-05-13T09:26:29.339Z,21.94
2023-05-13T09:36:30.710Z,21.70
2023-05-13T09:46:33.181Z,22.85
2023-05-13T09:56:35.260Z,28.39
2023-05-13T10:06:36.702Z,31.59
2023-05-13T10:16:38.552Z,35.10
2023-05-13T10:26:41.505Z,36.52
2023-05-13T10:37:10.641Z,36.27
2023-05-13T10:47:12.243Z,36.27
2023-05-13T10:57:13.634Z,35.58
2023-05-13T11:07:16.451Z,34.80
2023-05-13T11:17:19.230Z,35.30
2023-05-13T11:27:20.767Z,36.48
2023-05-13T11:37:22.139Z,36.69
2023-05-13T11:47:29.408Z,36.43
2023-05-13T11:57:33.997Z,36.60
2023-05-13T12:07:35.630Z,36.37
2023-05-13T12:17:37.153Z,35.53
2023-05-13T12:27:38.548Z,34.26
2023-05-13T12:37:39.984Z,34.49
2023-05-13T12:47:51.065Z,34.60
2023-05-13T12:58:02.961Z,36.04
2023-05-13T13:08:07.240Z,35.08
2023-05-13T13:18:09.157Z,33.00
2023-05-13T13:28:11.087Z,33.89
2023-05-13T13:38:12.842Z,34.30
2023-05-13T13:48:14.303Z,34.93
2023-05-13T13:58:15.777Z,35.83
2023-05-13T14:08:17.235Z,34.52
2023-05-13T14:18:18.686Z,36.59
2023-05-13T14:28:20.118Z,36.64
2023-05-13T14:38:21.506Z,37.18
2023-05-13T14:48:22.911Z,36.73
2023-05-13T14:58:24.347Z,36.58
2023-05-13T15:08:25.759Z,36.30
2023-05-13T15:18:27.166Z,36.55
2023-05-13T15:28:29.044Z,36.63
2023-05-13T15:38:30.493Z,36.21
2023-05-13T15:48:31.905Z,36.03
2023-05-13T15:58:33.418Z,37.42
2023-05-13T16:08:34.858Z,38.22
2023-05-13T16:18:36.250Z,37.83
2023-05-13T16:28:37.821Z,38.60
2023-05-13T16:38:41.167Z,39.25
2023-05-13T16:48:42.587Z,39.30
2023-05-13T16:58:43.997Z,39.55
2023-05-13T17:08:45.429Z,39.63
2023-05-13T17:18:46.863Z,39.91
2023-05-13T17:28:48.879Z,40.08
2023-05-13T17:38:50.429Z,40.21
2023-05-13T17:48:52.064Z,40.35
2023-05-13T17:58:53.566Z,40.45
2023-05-13T18:08:55.007Z,40.59
2023-05-13T18:18:56.384Z,40.43
2023-05-13T18:28:57.864Z,39.98
2023-05-13T18:38:59.296Z,40.21
2023-05-13T18:49:00.708Z,40.12
2023-05-13T18:59:02.146Z,40.36
2023-05-13T19:09:03.656Z,40.51
2023-05-13T19:19:05.262Z,40.72
2023-05-13T19:29:06.700Z,40.97
2023-05-13T19:39:08.145Z,41.15
2023-05-13T19:49:09.531Z,40.91
2023-05-13T19:59:10.941Z,41.46
2023-05-13T20:09:12.482Z,41.82
2023-05-13T20:19:13.981Z,42.03
2023-05-13T20:29:16.073Z,42.33
2023-05-13T20:39:17.459Z,42.63
2023-05-13T20:49:18.873Z,42.79
2023-05-13T20:59:20.345Z,42.53
2023-05-13T21:09:21.768Z,42.45
2023-05-13T21:19:23.655Z,43.61
2023-05-13T21:29:25.154Z,44.04
2023-05-13T21:39:26.649Z,44.00
2023-05-13T21:49:28.035Z,43.73
2023-05-13T21:59:29.435Z,44.02
2023-05-13T22:09:31.124Z,44.54
2023-05-13T22:19:34.393Z,45.11
2023-05-13T22:29:35.864Z,45.23
2023-05-13T22:39:37.547Z,46.54
2023-05-13T22:49:38.919Z,46.42
2023-05-13T22:59:40.302Z,46.69
2023-05-13T23:09:41.941Z,47.30
2023-05-13T23:19:43.470Z,47.09
2023-05-13T23:29:44.875Z,46.85
2023-05-13T23:39:46.269Z,46.05
2023-05-13T23:49:47.823Z,45.93
2023-05-13T23:59:49.371Z,45.93
